Time;durP1;ratioP1;P1;durP2;ratioP2;P2;SDS_P1;SDS_P2;PMS_P1;PMS_P2;Temp;Humidity;BMP_temperature;BMP_pressure;BME280_temperature;BME280_humidity;BME280_pressure;Samples;Min_cycle;Max_cycle;Signal;HPM_P1;HPM_P2
2021/11/27 00:00:21;;;;;;;388.98;307.17;;;9.90;95.60;;;9.03;100.00;100715.28;5052659;28;20413;-65
2021/11/27 00:02:49;;;;;;;397.95;317.67;;;9.90;95.70;;;9.01;100.00;100713.97;5052745;28;20445;-62
2021/11/27 00:05:20;;;;;;;388.20;306.92;;;9.90;95.70;;;9.04;100.00;100708.00;5052089;28;20470;-63
2021/11/27 00:07:49;;;;;;;394.25;316.15;;;9.90;95.80;;;9.06;100.00;100708.56;5052508;28;20413;-66
2021/11/27 00:10:21;;;;;;;392.98;319.52;;;9.90;95.90;;;9.03;100.00;100701.81;5052518;28;20420;-68
2021/11/27 00:12:50;;;;;;;396.45;330.05;;;9.90;95.80;;;9.04;100.00;100705.31;5052542;28;20900;-66
2021/11/27 00:15:24;;;;;;;577.85;527.45;;;9.90;95.80;;;8.99;100.00;100691.88;5051416;28;20934;-65
2021/11/27 00:17:53;;;;;;;489.83;442.60;;;9.90;95.90;;;8.98;100.00;100695.66;5052436;28;20869;-65
2021/11/27 00:20:25;;;;;;;484.63;437.83;;;9.90;95.90;;;8.95;100.00;100690.81;5051843;28;20418;-63
2021/11/27 00:22:53;;;;;;;388.43;295.70;;;9.90;96.00;;;8.95;100.00;100690.81;5052275;28;20441;-64
2021/11/27 00:25:22;;;;;;;389.35;294.73;;;9.80;96.00;;;8.92;100.00;100697.59;5051734;28;20457;-65
2021/11/27 00:27:51;;;;;;;388.60;301.83;;;9.80;96.00;;;8.91;100.00;100697.84;5052388;28;20882;-66
2021/11/27 00:30:27;;;;;;;389.58;312.33;;;9.80;96.40;;;8.89;100.00;100697.34;5052041;28;20471;-67
2021/11/27 00:32:55;;;;;;;393.00;307.13;;;9.80;96.10;;;8.78;100.00;100691.22;5052070;28;20753;-65
2021/11/27 00:35:24;;;;;;;390.85;304.65;;;9.70;96.10;;;8.75;100.00;100692.56;5051492;28;20425;-66
2021/11/27 00:37:56;;;;;;;387.80;295.57;;;9.70;96.30;;;8.78;100.00;100680.44;5051995;28;20465;-66
2021/11/27 00:40:26;;;;;;;391.50;306.92;;;9.70;96.40;;;8.85;100.00;100680.91;5051896;28;20469;-66
2021/11/27 00:42:55;;;;;;;392.67;300.67;;;9.70;96.40;;;8.90;100.00;100677.38;5051896;28;20881;-65
2021/11/27 00:45:27;;;;;;;390.27;313.90;;;9.80;96.40;;;8.92;100.00;100676.00;5051274;28;20413;-68
2021/11/27 00:47:57;;;;;;;455.10;408.90;;;9.80;96.30;;;8.93;100.00;100669.53;5051870;28;20876;-65
2021/11/27 00:50:30;;;;;;;426.63;381.52;;;9.80;96.20;;;8.96;100.00;100674.38;5051644;28;20436;-65
2021/11/27 00:52:59;;;;;;;398.05;319.52;;;9.80;96.20;;;8.97;100.00;100667.88;5051866;28;20498;-65
2021/11/27 00:55:28;;;;;;;388.05;289.48;;;9.90;96.20;;;9.02;100.00;100665.16;5051177;28;20513;-66
2021/11/27 00:57:56;;;;;;;389.48;297.25;;;9.90;96.20;;;9.04;100.00;100662.16;5051723;28;20891;-65
2021/11/27 01:00:32;;;;;;;389.67;306.97;;;9.90;96.10;;;9.04;100.00;100662.16;5051497;28;20518;-63
2021/11/27 01:03:01;;;;;;;394.08;312.70;;;9.90;96.10;;;9.03;100.00;100660.53;5051474;28;20879;-65
2021/11/27 01:05:30;;;;;;;385.70;292.20;;;9.90;96.00;;;8.98;100.00;100656.00;5051098;28;20452;-65
2021/11/27 01:07:59;;;;;;;389.95;307.45;;;9.90;96.10;;;8.95;100.00;100658.47;5051278;28;20502;-66
2021/11/27 01:10:33;;;;;;;388.20;300.48;;;9.80;96.20;;;8.94;100.00;100654.94;5051381;28;20448;-65
2021/11/27 01:13:01;;;;;;;388.10;297.90;;;9.80;96.30;;;8.95;100.00;100653.88;5051455;28;20445;-67
2021/11/27 01:15:33;;;;;;;386.47;291.07;;;9.80;96.30;;;8.96;100.00;100652.81;5050756;28;20982;-64
2021/11/27 01:18:02;;;;;;;391.85;310.00;;;9.80;96.50;;;8.99;100.00;100651.41;5051315;28;20475;-64
2021/11/27 01:20:42;;;;;;;388.60;305.80;;;9.80;96.40;;;9.00;100.00;100653.00;5051066;28;20425;-64
2021/11/27 01:23:11;;;;;;;393.92;311.60;;;9.90;96.50;;;9.00;100.00;100651.13;5051295;28;20962;-65
2021/11/27 01:25:40;;;;;;;390.27;308.23;;;9.90;96.60;;;9.03;100.00;100647.06;5050376;28;20400;-64
2021/11/27 01:28:09;;;;;;;394.07;311.03;;;9.90;96.60;;;9.03;100.00;100647.06;5051196;28;20783;-65
2021/11/27 01:30:38;;;;;;;395.63;318.00;;;9.90;96.60;;;9.00;100.00;100637.63;5050258;28;20923;-65
2021/11/27 01:33:07;;;;;;;399.55;325.67;;;9.90;96.60;;;9.00;100.00;100636.81;5051016;28;20485;-67
2021/11/27 01:35:35;;;;;;;399.70;326.52;;;9.90;96.70;;;9.00;100.00;100637.63;5050432;28;20443;-65
2021/11/27 01:38:03;;;;;;;397.48;326.48;;;9.90;96.70;;;9.01;100.00;100635.75;5050729;28;20453;-67
2021/11/27 01:40:32;;;;;;;401.23;332.50;;;9.90;96.70;;;9.05;100.00;100631.41;5050828;28;20898;-68
2021/11/27 01:43:00;;;;;;;403.23;358.17;;;9.90;96.70;;;9.04;100.00;100624.41;5050686;28;20522;-65
2021/11/27 01:45:29;;;;;;;384.42;287.73;;;9.90;96.80;;;9.04;100.00;100621.69;5050308;28;20456;-67
2021/11/27 01:48:03;;;;;;;388.77;300.33;;;9.90;96.80;;;9.05;100.00;100617.91;5050659;28;20405;-65
2021/11/27 01:50:35;;;;;;;392.58;301.88;;;9.90;96.90;;;9.05;100.00;100610.63;5050731;28;20818;-67
2021/11/27 01:53:05;;;;;;;399.90;342.45;;;9.90;96.90;;;9.06;100.00;100606.06;5050765;28;20808;-68
2021/11/27 01:55:33;;;;;;;397.77;351.80;;;9.90;97.00;;;9.02;100.00;100602.31;5050161;28;20459;-65
2021/11/27 01:58:02;;;;;;;397.00;337.95;;;9.90;96.70;;;8.95;100.00;100615.31;5050504;28;20475;-64
2021/11/27 02:00:40;;;;;;;404.83;341.33;;;9.90;96.80;;;8.89;100.00;100616.44;5050488;28;20428;-66
2021/11/27 02:03:10;;;;;;;408.58;360.92;;;9.80;97.00;;;8.89;100.00;100614.56;5050405;28;20408;-65
2021/11/27 02:05:38;;;;;;;413.30;368.17;;;9.80;97.10;;;8.94;100.00;100614.50;5050092;28;20856;-64
2021/11/27 02:08:07;;;;;;;445.67;399.73;;;9.80;97.30;;;8.99;100.00;100611.78;5050391;28;20421;-67
2021/11/27 02:10:36;;;;;;;400.25;347.98;;;9.90;97.40;;;9.06;100.00;100612.22;5050342;28;20409;-63
2021/11/27 02:13:04;;;;;;;435.48;390.00;;;9.90;97.60;;;9.14;100.00;100608.13;5050430;28;20470;-67
2021/11/27 02:15:33;;;;;;;441.17;395.33;;;10.00;97.20;;;9.24;100.00;100606.09;5049982;28;20417;-66
2021/11/27 02:18:01;;;;;;;;;;;10.10;97.20;;;9.37;100.00;100610.03;5049887;28;20455;-66
2021/11/27 02:20:38;;;;;;;645.17;594.72;;;10.20;97.10;;;9.52;100.00;100612.56;5049025;28;20474;-65
2021/11/27 02:23:07;;;;;;;548.42;500.17;;;10.40;97.00;;;9.61;100.00;100605.44;5050033;28;20876;-65
2021/11/27 02:25:36;;;;;;;402.20;357.53;;;10.50;96.90;;;9.69;100.00;100615.63;5049754;28;20510;-66
2021/11/27 02:28:07;;;;;;;413.10;368.38;;;10.50;96.80;;;9.75;100.00;100614.47;5050120;28;20421;-63
2021/11/27 02:30:35;;;;;;;400.17;355.17;;;10.60;96.70;;;9.79;100.00;100610.06;5050220;28;20843;-66
2021/11/27 02:33:03;;;;;;;398.02;340.85;;;10.60;96.70;;;9.78;100.00;100611.19;5050102;28;20404;-66
2021/11/27 02:35:31;;;;;;;393.85;335.95;;;10.60;96.60;;;9.76;100.00;100609.84;5049692;28;20811;-63
2021/11/27 02:38:01;;;;;;;404.20;359.50;;;10.70;96.70;;;9.75;100.00;100613.66;5050115;28;20463;-65
2021/11/27 02:40:31;;;;;;;400.73;345.48;;;10.60;96.70;;;9.76;100.00;100602.53;5049806;28;20931;-65
2021/11/27 02:42:59;;;;;;;399.10;345.23;;;10.60;96.70;;;9.75;100.00;100600.16;5052619;28;20513;-64
2021/11/27 02:45:28;;;;;;;397.73;350.57;;;10.60;96.70;;;9.73;100.00;100591.50;5053774;28;20473;-63
2021/11/27 02:47:56;;;;;;;401.70;341.40;;;10.60;96.70;;;9.73;100.00;100594.22;5054281;28;20872;-64
2021/11/27 02:50:24;;;;;;;401.60;344.13;;;10.60;96.70;;;9.70;100.00;100592.91;5053836;28;20500;-64
2021/11/27 02:52:52;;;;;;;396.67;333.60;;;10.60;96.80;;;9.69;100.00;100590.50;5053948;28;20413;-66
2021/11/27 02:55:22;;;;;;;398.97;347.17;;;10.60;96.80;;;9.58;100.00;100583.59;5053594;28;20416;-65
2021/11/27 02:57:50;;;;;;;396.20;327.27;;;10.50;96.50;;;9.41;100.00;100585.97;5054141;28;20409;-63
2021/11/27 03:00:24;;;;;;;396.00;330.38;;;10.30;96.60;;;9.21;100.00;100584.31;5053607;28;20425;-65
2021/11/27 03:02:52;;;;;;;393.02;315.65;;;10.20;96.60;;;9.03;100.00;100585.00;5053828;28;20455;-66
2021/11/27 03:05:20;;;;;;;388.73;300.00;;;10.00;96.70;;;8.86;100.00;100585.47;5053301;28;21031;-66
2021/11/27 03:07:49;;;;;;;394.13;313.13;;;9.80;97.20;;;8.75;100.00;100573.16;5053614;28;20417;-66
2021/11/27 03:10:21;;;;;;;401.63;316.30;;;9.60;97.60;;;8.78;100.00;100584.16;5053745;28;20876;-62
2021/11/27 03:12:51;;;;;;;442.73;396.63;;;9.70;98.00;;;8.85;100.00;100583.84;5053686;28;20452;-64
2021/11/27 03:15:20;;;;;;;544.90;495.80;;;9.70;98.00;;;8.92;100.00;100586.22;5052221;28;20440;-64
2021/11/27 03:17:49;;;;;;;391.20;306.23;;;9.80;98.20;;;9.06;100.00;100582.56;5053607;28;20409;-62
2021/11/27 03:20:21;;;;;;;381.73;286.63;;;9.90;98.60;;;9.19;100.00;100573.00;5053391;28;20486;-66
2021/11/27 03:22:49;;;;;;;387.30;297.33;;;10.10;98.00;;;9.32;100.00;100581.22;5053498;28;20456;-66
2021/11/27 03:25:17;;;;;;;385.65;282.35;;;10.20;97.90;;;9.45;100.00;100585.13;5052974;28;20417;-64
2021/11/27 03:27:47;;;;;;;388.10;298.98;;;10.30;97.90;;;9.59;100.00;100575.22;5053384;28;20453;-63
2021/11/27 03:30:20;;;;;;;403.08;356.35;;;10.40;97.80;;;9.70;100.00;100571.31;5053272;28;20887;-63
2021/11/27 03:32:48;;;;;;;402.90;338.40;;;10.50;97.70;;;9.79;100.00;100568.75;5053247;28;20417;-62
2021/11/27 03:35:18;;;;;;;416.77;371.67;;;10.60;97.50;;;9.86;100.00;100575.41;5052863;28;20417;-65
2021/11/27 03:37:47;;;;;;;411.10;366.03;;;10.70;97.40;;;9.96;100.00;100573.66;5053196;28;20914;-65
2021/11/27 03:40:17;;;;;;;422.45;377.60;;;10.70;97.20;;;10.01;100.00;100569.00;5053163;28;20433;-65
2021/11/27 03:42:47;;;;;;;418.53;373.47;;;10.80;97.10;;;9.99;100.00;100563.09;5053002;28;20474;-66
2021/11/27 03:45:19;;;;;;;421.65;376.80;;;10.80;97.10;;;9.97;100.00;100572.59;5052653;28;20405;-64
2021/11/27 03:48:05;;;;;;;429.10;384.07;;;10.80;97.30;;;10.00;100.00;100558.50;5053212;28;20517;-64
2021/11/27 03:50:36;;;;;;;437.08;392.20;;;10.80;97.30;;;10.08;100.00;100558.63;5052828;28;20881;-62
2021/11/27 03:53:05;;;;;;;650.33;599.30;;;10.90;97.20;;;10.15;100.00;100544.78;5052165;28;20417;-63
2021/11/27 03:55:34;;;;;;;681.70;630.10;;;11.00;97.20;;;10.24;100.00;100548.44;5050850;28;20418;-64
2021/11/27 03:58:05;;;;;;;433.00;388.15;;;11.10;97.00;;;10.29;100.00;100546.47;5050629;28;20998;-67
2021/11/27 04:00:33;;;;;;;407.00;362.35;;;11.10;96.80;;;10.33;100.00;100535.88;5052370;28;20429;-66
2021/11/27 04:03:02;;;;;;;402.63;358.43;;;11.20;96.70;;;10.31;100.00;100522.63;5052339;28;20441;-64
2021/11/27 04:05:31;;;;;;;410.33;365.70;;;11.20;96.70;;;10.35;100.00;100530.97;5052201;28;20456;-67
2021/11/27 04:08:00;;;;;;;401.92;357.65;;;11.20;96.70;;;10.34;100.00;100526.63;5038943;28;20451;-66
2021/11/27 04:10:28;;;;;;;425.45;380.33;;;11.20;96.70;;;10.37;100.00;100537.66;5041055;28;20423;-66
2021/11/27 04:12:56;;;;;;;406.88;362.17;;;11.20;96.80;;;10.40;100.00;100533.56;5052343;28;20452;-65
2021/11/27 04:15:25;;;;;;;434.88;389.63;;;11.20;96.80;;;10.38;100.00;100535.78;5048703;28;20433;-64
2021/11/27 04:17:54;;;;;;;416.57;372.03;;;11.20;96.80;;;10.35;100.00;100533.66;5049333;28;20559;-65
2021/11/27 04:20:22;;;;;;;413.80;369.20;;;11.30;97.00;;;10.35;100.00;100542.56;5052213;28;20437;-64
2021/11/27 04:22:50;;;;;;;406.73;362.10;;;11.30;97.00;;;10.38;100.00;100531.19;5052212;28;20472;-66
2021/11/27 04:25:18;;;;;;;405.37;361.10;;;11.30;97.00;;;10.44;100.00;100540.00;5051825;28;20507;-65
2021/11/27 04:27:46;;;;;;;426.92;381.75;;;11.30;97.00;;;10.48;100.00;100530.22;5052223;28;20440;-65
2021/11/27 04:30:19;;;;;;;427.30;382.30;;;11.30;97.00;;;10.51;100.00;100535.03;5052300;28;20851;-65
2021/11/27 04:32:49;;;;;;;421.70;376.75;;;11.40;97.00;;;10.57;100.00;100528.44;5051677;28;20816;-63
2021/11/27 04:35:18;;;;;;;424.52;379.73;;;11.40;97.00;;;10.58;100.00;100535.44;5051500;28;20449;-67
2021/11/27 04:37:47;;;;;;;555.60;507.80;;;11.40;96.90;;;10.58;100.00;100530.03;5051593;28;20437;-64
2021/11/27 04:40:17;;;;;;;685.10;633.30;;;11.50;96.90;;;10.59;100.00;100531.63;5035404;28;20503;-68
2021/11/27 04:42:46;;;;;;;526.70;479.52;;;11.50;96.90;;;10.59;100.00;100530.81;5030848;28;20502;-65
2021/11/27 04:45:16;;;;;;;732.15;679.20;;;11.50;97.00;;;10.57;100.00;100517.63;5030750;28;20450;-64
2021/11/27 04:47:43;;;;;;;;;;;11.50;97.00;;;10.56;100.00;100534.94;5029722;28;20483;-64
2021/11/27 04:50:15;;;;;;;640.00;588.90;;;11.50;97.10;;;10.59;100.00;100531.63;5031066;28;24167;-65
2021/11/27 04:52:43;;;;;;;459.05;413.27;;;11.50;97.10;;;10.60;100.00;100535.94;5031866;28;20442;-65
2021/11/27 04:55:12;;;;;;;493.00;446.67;;;11.50;97.20;;;10.60;100.00;100538.66;5031605;28;20454;-67
2021/11/27 04:57:41;;;;;;;509.50;462.75;;;11.40;97.10;;;10.61;100.00;100523.25;5031779;28;20441;-64
